sensor_id;sensor_type;location;lat;lon;timestamp;P1;durP1;ratioP1;P2;durP2;ratioP2
55186;SDS011;55457;52.002;5.464;2024-01-11T00:01:57;5.13;;;2.50;;
55186;SDS011;55457;52.002;5.464;2024-01-11T00:04:22;4.03;;;2.50;;
55186;SDS011;55457;52.002;5.464;2024-01-11T00:06:49;3.70;;;2.40;;
55186;SDS011;55457;52.002;5.464;2024-01-11T00:09:15;6.18;;;2.47;;
55186;SDS011;55457;52.002;5.464;2024-01-11T00:11:42;3.38;;;2.45;;
55186;SDS011;55457;52.002;5.464;2024-01-11T00:14:07;5.25;;;2.45;;
55186;SDS011;55457;52.002;5.464;2024-01-11T00:16:32;3.65;;;2.53;;
55186;SDS011;55457;52.002;5.464;2024-01-11T00:18:58;4.90;;;2.15;;
55186;SDS011;55457;52.002;5.464;2024-01-11T00:21:23;6.15;;;2.90;;
55186;SDS011;55457;52.002;5.464;2024-01-11T00:23:49;4.05;;;2.58;;
55186;SDS011;55457;52.002;5.464;2024-01-11T00:26:15;4.22;;;2.58;;
55186;SDS011;55457;52.002;5.464;2024-01-11T00:28:40;5.95;;;2.53;;
55186;SDS011;55457;52.002;5.464;2024-01-11T00:31:05;5.90;;;2.45;;
55186;SDS011;55457;52.002;5.464;2024-01-11T00:33:31;6.13;;;2.80;;
55186;SDS011;55457;52.002;5.464;2024-01-11T00:35:56;4.38;;;2.17;;
55186;SDS011;55457;52.002;5.464;2024-01-11T00:38:22;5.13;;;2.75;;
55186;SDS011;55457;52.002;5.464;2024-01-11T00:40:48;5.95;;;2.80;;
55186;SDS011;55457;52.002;5.464;2024-01-11T00:43:14;3.42;;;2.42;;
55186;SDS011;55457;52.002;5.464;2024-01-11T00:45:39;4.43;;;2.25;;
55186;SDS011;55457;52.002;5.464;2024-01-11T00:48:04;5.35;;;2.70;;
55186;SDS011;55457;52.002;5.464;2024-01-11T00:50:30;3.10;;;2.45;;
55186;SDS011;55457;52.002;5.464;2024-01-11T00:52:56;3.47;;;1.88;;
55186;SDS011;55457;52.002;5.464;2024-01-11T00:55:21;4.85;;;2.92;;
55186;SDS011;55457;52.002;5.464;2024-01-11T00:57:46;5.72;;;2.30;;
55186;SDS011;55457;52.002;5.464;2024-01-11T01:00:12;5.35;;;2.42;;
55186;SDS011;55457;52.002;5.464;2024-01-11T01:02:40;4.95;;;2.88;;
55186;SDS011;55457;52.002;5.464;2024-01-11T01:05:06;5.55;;;2.05;;
55186;SDS011;55457;52.002;5.464;2024-01-11T01:07:32;4.90;;;2.65;;
55186;SDS011;55457;52.002;5.464;2024-01-11T01:09:57;4.50;;;2.17;;
55186;SDS011;55457;52.002;5.464;2024-01-11T01:12:23;4.55;;;2.20;;
55186;SDS011;55457;52.002;5.464;2024-01-11T01:14:50;5.38;;;2.50;;
55186;SDS011;55457;52.002;5.464;2024-01-11T01:17:15;6.72;;;3.40;;
55186;SDS011;55457;52.002;5.464;2024-01-11T01:19:41;5.75;;;2.88;;
55186;SDS011;55457;52.002;5.464;2024-01-11T01:22:06;4.10;;;3.10;;
55186;SDS011;55457;52.002;5.464;2024-01-11T01:24:31;3.63;;;2.40;;
55186;SDS011;55457;52.002;5.464;2024-01-11T01:26:57;13.40;;;3.17;;
55186;SDS011;55457;52.002;5.464;2024-01-11T01:29:22;5.05;;;2.85;;
55186;SDS011;55457;52.002;5.464;2024-01-11T01:31:47;4.13;;;2.30;;
55186;SDS011;55457;52.002;5.464;2024-01-11T01:34:13;8.85;;;3.88;;
55186;SDS011;55457;52.002;5.464;2024-01-11T01:36:39;5.95;;;2.78;;
55186;SDS011;55457;52.002;5.464;2024-01-11T01:39:05;5.45;;;2.33;;
55186;SDS011;55457;52.002;5.464;2024-01-11T01:41:30;6.05;;;2.83;;
55186;SDS011;55457;52.002;5.464;2024-01-11T01:43:56;5.65;;;2.65;;
55186;SDS011;55457;52.002;5.464;2024-01-11T01:46:22;6.10;;;2.53;;
55186;SDS011;55457;52.002;5.464;2024-01-11T01:48:49;6.95;;;2.33;;
55186;SDS011;55457;52.002;5.464;2024-01-11T01:51:15;5.03;;;2.55;;
55186;SDS011;55457;52.002;5.464;2024-01-11T01:53:41;5.05;;;2.40;;
55186;SDS011;55457;52.002;5.464;2024-01-11T01:56:06;3.60;;;2.20;;
55186;SDS011;55457;52.002;5.464;2024-01-11T01:58:33;7.68;;;2.20;;
55186;SDS011;55457;52.002;5.464;2024-01-11T02:00:59;4.65;;;2.28;;
55186;SDS011;55457;52.002;5.464;2024-01-11T02:03:26;3.67;;;1.98;;
55186;SDS011;55457;52.002;5.464;2024-01-11T02:05:53;3.63;;;2.03;;
55186;SDS011;55457;52.002;5.464;2024-01-11T02:08:19;5.97;;;3.15;;
55186;SDS011;55457;52.002;5.464;2024-01-11T02:10:47;10.88;;;2.95;;
55186;SDS011;55457;52.002;5.464;2024-01-11T02:13:12;5.78;;;2.38;;
55186;SDS011;55457;52.002;5.464;2024-01-11T02:15:38;4.40;;;2.60;;
55186;SDS011;55457;52.002;5.464;2024-01-11T02:18:04;6.60;;;2.97;;
55186;SDS011;55457;52.002;5.464;2024-01-11T02:20:30;4.72;;;2.85;;
55186;SDS011;55457;52.002;5.464;2024-01-11T02:22:58;7.53;;;2.58;;
55186;SDS011;55457;52.002;5.464;2024-01-11T02:25:28;4.70;;;2.65;;
55186;SDS011;55457;52.002;5.464;2024-01-11T02:27:53;5.03;;;2.35;;
55186;SDS011;55457;52.002;5.464;2024-01-11T02:30:19;4.65;;;2.70;;
55186;SDS011;55457;52.002;5.464;2024-01-11T02:32:45;4.25;;;2.80;;
55186;SDS011;55457;52.002;5.464;2024-01-11T02:35:13;4.60;;;2.67;;
55186;SDS011;55457;52.002;5.464;2024-01-11T02:37:39;4.15;;;2.63;;
55186;SDS011;55457;52.002;5.464;2024-01-11T02:40:06;4.05;;;2.35;;
55186;SDS011;55457;52.002;5.464;2024-01-11T02:42:33;4.88;;;2.60;;
55186;SDS011;55457;52.002;5.464;2024-01-11T02:44:59;7.82;;;2.35;;
55186;SDS011;55457;52.002;5.464;2024-01-11T02:47:24;6.10;;;2.72;;
55186;SDS011;55457;52.002;5.464;2024-01-11T02:49:50;6.10;;;2.42;;
55186;SDS011;55457;52.002;5.464;2024-01-11T02:52:15;5.43;;;2.28;;
55186;SDS011;55457;52.002;5.464;2024-01-11T02:54:40;5.22;;;2.35;;
55186;SDS011;55457;52.002;5.464;2024-01-11T02:57:06;5.95;;;2.35;;
55186;SDS011;55457;52.002;5.464;2024-01-11T02:59:32;3.60;;;2.20;;
55186;SDS011;55457;52.002;5.464;2024-01-11T03:01:57;3.92;;;2.30;;
55186;SDS011;55457;52.002;5.464;2024-01-11T03:04:23;6.95;;;2.60;;
55186;SDS011;55457;52.002;5.464;2024-01-11T03:06:48;4.00;;;2.45;;
55186;SDS011;55457;52.002;5.464;2024-01-11T03:09:13;4.90;;;2.78;;
55186;SDS011;55457;52.002;5.464;2024-01-11T03:11:39;10.50;;;2.78;;
55186;SDS011;55457;52.002;5.464;2024-01-11T03:14:04;4.15;;;2.53;;
55186;SDS011;55457;52.002;5.464;2024-01-11T03:16:29;5.85;;;2.70;;
55186;SDS011;55457;52.002;5.464;2024-01-11T03:18:54;3.90;;;2.72;;
55186;SDS011;55457;52.002;5.464;2024-01-11T03:21:20;6.40;;;2.08;;
55186;SDS011;55457;52.002;5.464;2024-01-11T03:23:45;4.18;;;2.17;;
55186;SDS011;55457;52.002;5.464;2024-01-11T03:26:17;4.10;;;2.58;;
55186;SDS011;55457;52.002;5.464;2024-01-11T03:28:43;3.50;;;2.20;;
55186;SDS011;55457;52.002;5.464;2024-01-11T03:31:09;6.97;;;2.60;;
55186;SDS011;55457;52.002;5.464;2024-01-11T03:33:34;7.65;;;3.10;;
55186;SDS011;55457;52.002;5.464;2024-01-11T03:36:05;6.75;;;2.50;;
55186;SDS011;55457;52.002;5.464;2024-01-11T03:38:32;3.72;;;2.50;;
55186;SDS011;55457;52.002;5.464;2024-01-11T03:40:57;4.10;;;2.30;;
55186;SDS011;55457;52.002;5.464;2024-01-11T03:43:22;7.75;;;2.80;;
55186;SDS011;55457;52.002;5.464;2024-01-11T03:45:48;5.10;;;2.65;;
55186;SDS011;55457;52.002;5.464;2024-01-11T03:48:13;6.60;;;2.40;;
55186;SDS011;55457;52.002;5.464;2024-01-11T03:50:38;5.53;;;2.40;;
55186;SDS011;55457;52.002;5.464;2024-01-11T03:53:03;7.63;;;3.10;;
55186;SDS011;55457;52.002;5.464;2024-01-11T03:55:29;4.30;;;2.47;;
55186;SDS011;55457;52.002;5.464;2024-01-11T03:57:54;4.32;;;2.65;;
55186;SDS011;55457;52.002;5.464;2024-01-11T04:00:20;5.28;;;2.47;;
55186;SDS011;55457;52.002;5.464;2024-01-11T04:02:45;7.15;;;2.78;;
55186;SDS011;55457;52.002;5.464;2024-01-11T04:05:10;3.95;;;2.38;;
55186;SDS011;55457;52.002;5.464;2024-01-11T04:07:35;4.72;;;2.33;;
55186;SDS011;55457;52.002;5.464;2024-01-11T04:10:01;7.28;;;3.88;;
55186;SDS011;55457;52.002;5.464;2024-01-11T04:12:26;4.88;;;2.42;;
55186;SDS011;55457;52.002;5.464;2024-01-11T04:14:51;9.43;;;3.60;;
55186;SDS011;55457;52.002;5.464;2024-01-11T04:17:17;7.35;;;2.75;;
55186;SDS011;55457;52.002;5.464;2024-01-11T04:19:42;5.95;;;2.50;;
55186;SDS011;55457;52.002;5.464;2024-01-11T04:22:07;5.88;;;2.50;;
55186;SDS011;55457;52.002;5.464;2024-01-11T04:24:33;4.85;;;2.83;;
55186;SDS011;55457;52.002;5.464;2024-01-11T04:26:58;6.13;;;2.60;;
55186;SDS011;55457;52.002;5.464;2024-01-11T04:29:23;6.30;;;2.15;;
55186;SDS011;55457;52.002;5.464;2024-01-11T04:31:49;4.15;;;2.13;;
55186;SDS011;55457;52.002;5.464;2024-01-11T04:34:14;3.60;;;2.17;;
55186;SDS011;55457;52.002;5.464;2024-01-11T04:36:39;5.72;;;3.10;;
55186;SDS011;55457;52.002;5.464;2024-01-11T04:39:05;6.57;;;2.65;;
55186;SDS011;55457;52.002;5.464;2024-01-11T04:41:32;6.15;;;2.45;;
55186;SDS011;55457;52.002;5.464;2024-01-11T04:44:00;3.45;;;2.10;;
55186;SDS011;55457;52.002;5.464;2024-01-11T04:46:25;6.63;;;2.92;;
55186;SDS011;55457;52.002;5.464;2024-01-11T04:48:50;5.03;;;2.70;;
55186;SDS011;55457;52.002;5.464;2024-01-11T04:51:16;10.90;;;2.40;;
55186;SDS011;55457;52.002;5.464;2024-01-11T04:53:43;5.95;;;2.40;;
55186;SDS011;55457;52.002;5.464;2024-01-11T04:56:10;5.97;;;2.80;;
55186;SDS011;55457;52.002;5.464;2024-01-11T04:58:37;5.75;;;2.10;;
55186;SDS011;55457;52.002;5.464;2024-01-11T05:01:05;4.50;;;2.40;;
55186;SDS011;55457;52.002;5.464;2024-01-11T05:03:31;6.78;;;2.58;;
55186;SDS011;55457;52.002;5.464;2024-01-11T05:05:57;5.50;;;2.55;;
55186;SDS011;55457;52.002;5.464;2024-01-11T05:08:23;5.47;;;2.10;;
55186;SDS011;55457;52.002;5.464;2024-01-11T05:10:48;6.55;;;2.60;;
55186;SDS011;55457;52.002;5.464;2024-01-11T05:13:14;5.65;;;2.47;;
55186;SDS011;55457;52.002;5.464;2024-01-11T05:15:39;6.65;;;2.65;;
55186;SDS011;55457;52.002;5.464;2024-01-11T05:18:05;6.28;;;2.80;;
55186;SDS011;55457;52.002;5.464;2024-01-11T05:20:30;6.80;;;3.13;;
55186;SDS011;55457;52.002;5.464;2024-01-11T05:22:55;8.77;;;2.50;;
55186;SDS011;55457;52.002;5.464;2024-01-11T05:25:21;5.95;;;2.40;;
55186;SDS011;55457;52.002;5.464;2024-01-11T05:27:46;4.85;;;2.63;;
55186;SDS011;55457;52.002;5.464;2024-01-11T05:30:11;6.50;;;2.95;;
55186;SDS011;55457;52.002;5.464;2024-01-11T05:32:37;4.90;;;2.63;;
55186;SDS011;55457;52.002;5.464;2024-01-11T05:35:03;4.95;;;2.30;;
55186;SDS011;55457;52.002;5.464;2024-01-11T05:37:28;7.35;;;2.47;;
55186;SDS011;55457;52.002;5.464;2024-01-11T05:39:53;4.75;;;2.08;;
55186;SDS011;55457;52.002;5.464;2024-01-11T05:42:21;4.45;;;3.08;;
55186;SDS011;55457;52.002;5.464;2024-01-11T05:44:47;12.00;;;3.17;;
55186;SDS011;55457;52.002;5.464;2024-01-11T05:47:12;4.50;;;2.55;;
55186;SDS011;55457;52.002;5.464;2024-01-11T05:49:38;4.40;;;1.98;;
55186;SDS011;55457;52.002;5.464;2024-01-11T05:52:03;4.38;;;2.65;;
55186;SDS011;55457;52.002;5.464;2024-01-11T05:54:29;5.38;;;2.00;;
55186;SDS011;55457;52.002;5.464;2024-01-11T05:56:54;4.38;;;2.72;;
55186;SDS011;55457;52.002;5.464;2024-01-11T05:59:24;5.85;;;2.05;;
55186;SDS011;55457;52.002;5.464;2024-01-11T06:01:50;3.42;;;2.17;;
55186;SDS011;55457;52.002;5.464;2024-01-11T06:04:15;3.35;;;2.33;;
55186;SDS011;55457;52.002;5.464;2024-01-11T06:06:41;4.28;;;2.45;;
55186;SDS011;55457;52.002;5.464;2024-01-11T06:09:07;3.80;;;2.85;;
55186;SDS011;55457;52.002;5.464;2024-01-11T06:11:32;4.55;;;2.38;;
55186;SDS011;55457;52.002;5.464;2024-01-11T06:13:58;4.85;;;2.72;;
55186;SDS011;55457;52.002;5.464;2024-01-11T06:16:23;8.55;;;2.50;;
55186;SDS011;55457;52.002;5.464;2024-01-11T06:18:50;4.43;;;2.05;;
55186;SDS011;55457;52.002;5.464;2024-01-11T06:21:15;5.07;;;2.33;;
55186;SDS011;55457;52.002;5.464;2024-01-11T06:23:42;4.10;;;2.03;;
55186;SDS011;55457;52.002;5.464;2024-01-11T06:26:08;4.72;;;2.10;;
55186;SDS011;55457;52.002;5.464;2024-01-11T06:28:33;8.02;;;2.90;;
55186;SDS011;55457;52.002;5.464;2024-01-11T06:30:59;7.07;;;2.55;;
55186;SDS011;55457;52.002;5.464;2024-01-11T06:33:24;5.03;;;2.72;;
55186;SDS011;55457;52.002;5.464;2024-01-11T06:35:49;5.22;;;2.60;;
55186;SDS011;55457;52.002;5.464;2024-01-11T06:38:15;3.80;;;2.58;;
55186;SDS011;55457;52.002;5.464;2024-01-11T06:40:40;3.83;;;2.58;;
55186;SDS011;55457;52.002;5.464;2024-01-11T06:43:06;4.22;;;2.90;;
55186;SDS011;55457;52.002;5.464;2024-01-11T06:45:31;3.35;;;2.30;;
55186;SDS011;55457;52.002;5.464;2024-01-11T06:47:57;3.00;;;2.63;;
55186;SDS011;55457;52.002;5.464;2024-01-11T06:50:22;8.57;;;2.63;;
55186;SDS011;55457;52.002;5.464;2024-01-11T06:52:47;6.07;;;2.63;;
55186;SDS011;55457;52.002;5.464;2024-01-11T06:55:13;4.53;;;2.70;;
55186;SDS011;55457;52.002;5.464;2024-01-11T06:57:38;2.75;;;2.13;;
55186;SDS011;55457;52.002;5.464;2024-01-11T07:00:04;4.80;;;3.17;;
55186;SDS011;55457;52.002;5.464;2024-01-11T07:02:30;4.75;;;2.60;;
55186;SDS011;55457;52.002;5.464;2024-01-11T07:04:55;4.40;;;2.38;;
55186;SDS011;55457;52.002;5.464;2024-01-11T07:07:21;4.03;;;2.10;;
55186;SDS011;55457;52.002;5.464;2024-01-11T07:09:47;4.68;;;2.60;;
55186;SDS011;55457;52.002;5.464;2024-01-11T07:12:12;4.00;;;2.58;;
55186;SDS011;55457;52.002;5.464;2024-01-11T07:14:37;5.10;;;2.38;;
55186;SDS011;55457;52.002;5.464;2024-01-11T07:17:03;7.70;;;2.50;;
55186;SDS011;55457;52.002;5.464;2024-01-11T07:19:29;9.10;;;4.10;;
55186;SDS011;55457;52.002;5.464;2024-01-11T07:21:54;9.60;;;3.00;;
55186;SDS011;55457;52.002;5.464;2024-01-11T07:24:19;17.90;;;3.30;;
55186;SDS011;55457;52.002;5.464;2024-01-11T07:26:45;9.65;;;3.38;;
55186;SDS011;55457;52.002;5.464;2024-01-11T07:29:10;17.35;;;4.53;;
55186;SDS011;55457;52.002;5.464;2024-01-11T07:31:35;15.30;;;4.03;;
55186;SDS011;55457;52.002;5.464;2024-01-11T07:34:01;18.02;;;3.85;;
55186;SDS011;55457;52.002;5.464;2024-01-11T07:36:26;10.65;;;3.83;;
55186;SDS011;55457;52.002;5.464;2024-01-11T07:38:52;16.00;;;4.47;;
55186;SDS011;55457;52.002;5.464;2024-01-11T07:41:18;13.43;;;3.83;;
55186;SDS011;55457;52.002;5.464;2024-01-11T07:43:43;12.10;;;4.15;;
55186;SDS011;55457;52.002;5.464;2024-01-11T07:46:09;11.48;;;3.85;;
55186;SDS011;55457;52.002;5.464;2024-01-11T07:48:34;11.57;;;3.65;;
55186;SDS011;55457;52.002;5.464;2024-01-11T07:51:00;12.48;;;3.40;;
55186;SDS011;55457;52.002;5.464;2024-01-11T07:53:25;11.48;;;4.47;;
55186;SDS011;55457;52.002;5.464;2024-01-11T07:55:51;9.30;;;3.05;;
55186;SDS011;55457;52.002;5.464;2024-01-11T07:58:17;8.27;;;3.80;;
55186;SDS011;55457;52.002;5.464;2024-01-11T08:00:43;11.80;;;3.97;;
55186;SDS011;55457;52.002;5.464;2024-01-11T08:03:09;19.35;;;4.20;;
55186;SDS011;55457;52.002;5.464;2024-01-11T08:05:35;9.18;;;3.35;;
55186;SDS011;55457;52.002;5.464;2024-01-11T08:08:01;10.77;;;3.72;;
55186;SDS011;55457;52.002;5.464;2024-01-11T08:10:28;10.65;;;3.65;;
55186;SDS011;55457;52.002;5.464;2024-01-11T08:12:53;13.38;;;4.53;;
55186;SDS011;55457;52.002;5.464;2024-01-11T08:15:18;7.90;;;3.45;;
55186;SDS011;55457;52.002;5.464;2024-01-11T08:17:44;13.15;;;4.35;;
55186;SDS011;55457;52.002;5.464;2024-01-11T08:20:10;4.78;;;3.38;;
55186;SDS011;55457;52.002;5.464;2024-01-11T08:22:36;8.55;;;3.15;;
55186;SDS011;55457;52.002;5.464;2024-01-11T08:25:04;9.30;;;3.83;;
55186;SDS011;55457;52.002;5.464;2024-01-11T08:27:30;11.80;;;3.83;;
55186;SDS011;55457;52.002;5.464;2024-01-11T08:29:56;14.60;;;3.83;;
55186;SDS011;55457;52.002;5.464;2024-01-11T08:32:21;10.02;;;3.60;;
55186;SDS011;55457;52.002;5.464;2024-01-11T08:34:47;6.47;;;2.97;;
55186;SDS011;55457;52.002;5.464;2024-01-11T08:37:12;7.47;;;3.63;;
55186;SDS011;55457;52.002;5.464;2024-01-11T08:39:37;8.15;;;3.42;;
55186;SDS011;55457;52.002;5.464;2024-01-11T08:42:03;10.10;;;3.10;;
55186;SDS011;55457;52.002;5.464;2024-01-11T08:44:29;5.25;;;3.35;;
55186;SDS011;55457;52.002;5.464;2024-01-11T08:46:55;7.63;;;3.58;;
55186;SDS011;55457;52.002;5.464;2024-01-11T08:49:22;8.52;;;3.50;;
55186;SDS011;55457;52.002;5.464;2024-01-11T08:51:47;9.65;;;3.67;;
55186;SDS011;55457;52.002;5.464;2024-01-11T08:54:13;7.47;;;5.00;;
55186;SDS011;55457;52.002;5.464;2024-01-11T08:56:41;6.88;;;3.65;;
55186;SDS011;55457;52.002;5.464;2024-01-11T08:59:09;7.93;;;3.65;;
55186;SDS011;55457;52.002;5.464;2024-01-11T09:01:35;9.02;;;3.92;;
55186;SDS011;55457;52.002;5.464;2024-01-11T09:04:01;12.23;;;4.28;;
55186;SDS011;55457;52.002;5.464;2024-01-11T09:06:26;13.07;;;3.45;;
55186;SDS011;55457;52.002;5.464;2024-01-11T09:08:52;8.55;;;3.35;;
55186;SDS011;55457;52.002;5.464;2024-01-11T09:11:18;9.77;;;3.80;;
55186;SDS011;55457;52.002;5.464;2024-01-11T09:13:43;7.88;;;3.72;;
55186;SDS011;55457;52.002;5.464;2024-01-11T09:16:08;9.07;;;3.10;;
55186;SDS011;55457;52.002;5.464;2024-01-11T09:18:34;13.52;;;4.07;;
55186;SDS011;55457;52.002;5.464;2024-01-11T09:21:00;9.30;;;3.67;;
55186;SDS011;55457;52.002;5.464;2024-01-11T09:23:25;7.88;;;3.25;;
55186;SDS011;55457;52.002;5.464;2024-01-11T09:25:51;10.13;;;3.30;;
55186;SDS011;55457;52.002;5.464;2024-01-11T09:28:16;9.13;;;3.17;;
55186;SDS011;55457;52.002;5.464;2024-01-11T09:30:41;8.50;;;3.45;;
55186;SDS011;55457;52.002;5.464;2024-01-11T09:33:07;6.10;;;3.03;;
55186;SDS011;55457;52.002;5.464;2024-01-11T09:35:32;10.90;;;4.25;;
55186;SDS011;55457;52.002;5.464;2024-01-11T09:37:57;8.55;;;3.00;;
55186;SDS011;55457;52.002;5.464;2024-01-11T09:40:23;9.68;;;3.38;;
55186;SDS011;55457;52.002;5.464;2024-01-11T09:42:48;11.45;;;3.72;;
55186;SDS011;55457;52.002;5.464;2024-01-11T09:45:14;6.93;;;3.33;;
55186;SDS011;55457;52.002;5.464;2024-01-11T09:47:41;9.13;;;3.88;;
55186;SDS011;55457;52.002;5.464;2024-01-11T09:50:07;9.73;;;4.05;;
55186;SDS011;55457;52.002;5.464;2024-01-11T09:52:33;15.02;;;4.38;;
55186;SDS011;55457;52.002;5.464;2024-01-11T09:54:59;13.48;;;3.80;;
55186;SDS011;55457;52.002;5.464;2024-01-11T09:57:26;10.18;;;3.42;;
55186;SDS011;55457;52.002;5.464;2024-01-11T09:59:54;7.10;;;3.42;;
55186;SDS011;55457;52.002;5.464;2024-01-11T10:02:21;6.93;;;3.60;;
55186;SDS011;55457;52.002;5.464;2024-01-11T10:04:48;7.97;;;3.22;;
55186;SDS011;55457;52.002;5.464;2024-01-11T10:07:14;6.70;;;3.30;;
55186;SDS011;55457;52.002;5.464;2024-01-11T10:09:43;6.88;;;3.10;;
55186;SDS011;55457;52.002;5.464;2024-01-11T10:12:09;9.65;;;3.15;;
55186;SDS011;55457;52.002;5.464;2024-01-11T10:14:35;10.77;;;3.38;;
55186;SDS011;55457;52.002;5.464;2024-01-11T10:17:00;12.38;;;3.58;;
55186;SDS011;55457;52.002;5.464;2024-01-11T10:19:25;4.63;;;3.00;;
55186;SDS011;55457;52.002;5.464;2024-01-11T10:21:51;9.00;;;3.10;;
55186;SDS011;55457;52.002;5.464;2024-01-11T10:24:19;4.82;;;2.80;;
55186;SDS011;55457;52.002;5.464;2024-01-11T10:26:50;6.45;;;3.20;;
55186;SDS011;55457;52.002;5.464;2024-01-11T10:29:16;6.95;;;3.15;;
55186;SDS011;55457;52.002;5.464;2024-01-11T10:31:43;7.88;;;3.72;;
55186;SDS011;55457;52.002;5.464;2024-01-11T10:34:08;4.65;;;2.65;;
55186;SDS011;55457;52.002;5.464;2024-01-11T10:36:33;7.82;;;3.13;;
55186;SDS011;55457;52.002;5.464;2024-01-11T10:39:02;4.60;;;2.53;;
55186;SDS011;55457;52.002;5.464;2024-01-11T10:41:30;8.65;;;3.05;;
55186;SDS011;55457;52.002;5.464;2024-01-11T10:44:03;5.45;;;3.03;;
55186;SDS011;55457;52.002;5.464;2024-01-11T10:46:29;6.47;;;3.25;;
55186;SDS011;55457;52.002;5.464;2024-01-11T10:48:58;5.97;;;3.50;;
55186;SDS011;55457;52.002;5.464;2024-01-11T10:51:28;5.05;;;3.40;;
55186;SDS011;55457;52.002;5.464;2024-01-11T10:53:57;6.63;;;3.10;;
55186;SDS011;55457;52.002;5.464;2024-01-11T10:56:24;6.47;;;3.22;;
55186;SDS011;55457;52.002;5.464;2024-01-11T10:58:51;6.60;;;3.28;;
55186;SDS011;55457;52.002;5.464;2024-01-11T11:01:19;4.93;;;2.97;;
55186;SDS011;55457;52.002;5.464;2024-01-11T11:03:45;8.43;;;4.20;;
55186;SDS011;55457;52.002;5.464;2024-01-11T11:06:13;12.35;;;3.25;;
55186;SDS011;55457;52.002;5.464;2024-01-11T11:08:39;9.75;;;3.20;;
55186;SDS011;55457;52.002;5.464;2024-01-11T11:11:05;13.40;;;3.45;;
55186;SDS011;55457;52.002;5.464;2024-01-11T11:13:31;12.68;;;3.67;;
55186;SDS011;55457;52.002;5.464;2024-01-11T11:15:57;5.32;;;3.33;;
55186;SDS011;55457;52.002;5.464;2024-01-11T11:18:23;7.22;;;3.53;;
55186;SDS011;55457;52.002;5.464;2024-01-11T11:20:50;9.88;;;3.28;;
55186;SDS011;55457;52.002;5.464;2024-01-11T11:23:16;12.23;;;3.55;;
55186;SDS011;55457;52.002;5.464;2024-01-11T11:25:43;6.40;;;3.08;;
55186;SDS011;55457;52.002;5.464;2024-01-11T11:28:11;7.65;;;2.95;;
55186;SDS011;55457;52.002;5.464;2024-01-11T11:30:37;7.05;;;2.85;;
55186;SDS011;55457;52.002;5.464;2024-01-11T11:33:23;10.27;;;3.03;;
55186;SDS011;55457;52.002;5.464;2024-01-11T11:35:52;10.02;;;3.47;;
55186;SDS011;55457;52.002;5.464;2024-01-11T11:38:22;11.50;;;3.53;;
55186;SDS011;55457;52.002;5.464;2024-01-11T11:40:51;14.83;;;3.63;;
55186;SDS011;55457;52.002;5.464;2024-01-11T11:43:17;5.97;;;2.85;;
55186;SDS011;55457;52.002;5.464;2024-01-11T11:45:44;7.82;;;3.15;;
55186;SDS011;55457;52.002;5.464;2024-01-11T11:53:37;7.97;;;3.25;;
55186;SDS011;55457;52.002;5.464;2024-01-11T11:56:04;9.07;;;3.33;;
55186;SDS011;55457;52.002;5.464;2024-01-11T11:58:30;9.43;;;2.97;;
55186;SDS011;55457;52.002;5.464;2024-01-11T12:01:00;12.70;;;3.60;;
55186;SDS011;55457;52.002;5.464;2024-01-11T12:03:28;13.88;;;3.60;;
55186;SDS011;55457;52.002;5.464;2024-01-11T12:05:58;8.73;;;2.73;;
55186;SDS011;55457;52.002;5.464;2024-01-11T12:08:25;4.25;;;2.40;;
55186;SDS011;55457;52.002;5.464;2024-01-11T12:10:51;6.53;;;3.15;;
55186;SDS011;55457;52.002;5.464;2024-01-11T12:13:17;15.48;;;3.20;;
55186;SDS011;55457;52.002;5.464;2024-01-11T12:15:43;5.43;;;2.72;;
55186;SDS011;55457;52.002;5.464;2024-01-11T12:18:08;5.80;;;3.13;;
55186;SDS011;55457;52.002;5.464;2024-01-11T12:20:33;7.25;;;3.17;;
55186;SDS011;55457;52.002;5.464;2024-01-11T12:22:59;8.18;;;2.97;;
55186;SDS011;55457;52.002;5.464;2024-01-11T12:25:24;9.35;;;3.30;;
55186;SDS011;55457;52.002;5.464;2024-01-11T12:27:50;10.73;;;3.00;;
55186;SDS011;55457;52.002;5.464;2024-01-11T12:30:16;9.60;;;2.72;;
55186;SDS011;55457;52.002;5.464;2024-01-11T12:32:42;5.72;;;2.72;;
55186;SDS011;55457;52.002;5.464;2024-01-11T12:35:08;4.93;;;2.42;;
55186;SDS011;55457;52.002;5.464;2024-01-11T12:37:35;5.45;;;3.00;;
55186;SDS011;55457;52.002;5.464;2024-01-11T12:40:00;6.63;;;3.03;;
55186;SDS011;55457;52.002;5.464;2024-01-11T12:42:26;6.57;;;2.70;;
55186;SDS011;55457;52.002;5.464;2024-01-11T12:44:52;4.05;;;2.72;;
55186;SDS011;55457;52.002;5.464;2024-01-11T12:47:17;4.97;;;2.63;;
55186;SDS011;55457;52.002;5.464;2024-01-11T12:49:43;6.07;;;2.60;;
55186;SDS011;55457;52.002;5.464;2024-01-11T12:52:20;10.50;;;3.15;;
55186;SDS011;55457;52.002;5.464;2024-01-11T12:54:45;6.75;;;2.95;;
55186;SDS011;55457;52.002;5.464;2024-01-11T12:57:12;4.40;;;2.33;;
55186;SDS011;55457;52.002;5.464;2024-01-11T12:59:42;5.13;;;2.25;;
55186;SDS011;55457;52.002;5.464;2024-01-11T13:02:08;4.47;;;2.42;;
55186;SDS011;55457;52.002;5.464;2024-01-11T13:04:34;6.18;;;2.60;;
55186;SDS011;55457;52.002;5.464;2024-01-11T13:06:59;5.68;;;2.10;;
55186;SDS011;55457;52.002;5.464;2024-01-11T13:09:25;7.30;;;2.50;;
55186;SDS011;55457;52.002;5.464;2024-01-11T13:11:50;7.60;;;2.90;;
55186;SDS011;55457;52.002;5.464;2024-01-11T13:14:15;6.35;;;2.53;;
55186;SDS011;55457;52.002;5.464;2024-01-11T13:16:44;4.05;;;2.30;;
55186;SDS011;55457;52.002;5.464;2024-01-11T13:19:11;6.07;;;2.75;;
55186;SDS011;55457;52.002;5.464;2024-01-11T13:21:36;9.00;;;2.90;;
55186;SDS011;55457;52.002;5.464;2024-01-11T13:24:02;5.60;;;2.25;;
55186;SDS011;55457;52.002;5.464;2024-01-11T13:26:28;5.15;;;3.17;;
55186;SDS011;55457;52.002;5.464;2024-01-11T13:28:54;7.55;;;2.63;;
55186;SDS011;55457;52.002;5.464;2024-01-11T13:31:19;3.20;;;2.15;;
55186;SDS011;55457;52.002;5.464;2024-01-11T13:33:45;4.68;;;2.63;;
55186;SDS011;55457;52.002;5.464;2024-01-11T13:36:11;7.22;;;2.13;;
55186;SDS011;55457;52.002;5.464;2024-01-11T13:38:36;3.97;;;2.33;;
55186;SDS011;55457;52.002;5.464;2024-01-11T13:41:02;3.55;;;2.30;;
55186;SDS011;55457;52.002;5.464;2024-01-11T13:43:27;3.22;;;2.30;;
55186;SDS011;55457;52.002;5.464;2024-01-11T13:45:53;5.70;;;2.50;;
55186;SDS011;55457;52.002;5.464;2024-01-11T13:48:19;2.85;;;1.90;;
55186;SDS011;55457;52.002;5.464;2024-01-11T13:50:45;5.95;;;2.22;;
55186;SDS011;55457;52.002;5.464;2024-01-11T13:53:10;5.10;;;2.28;;
55186;SDS011;55457;52.002;5.464;2024-01-11T13:55:35;6.53;;;1.90;;
55186;SDS011;55457;52.002;5.464;2024-01-11T13:58:03;5.00;;;2.05;;
55186;SDS011;55457;52.002;5.464;2024-01-11T14:00:29;5.10;;;2.13;;
55186;SDS011;55457;52.002;5.464;2024-01-11T14:02:54;5.50;;;2.45;;
55186;SDS011;55457;52.002;5.464;2024-01-11T14:05:20;3.55;;;2.08;;
55186;SDS011;55457;52.002;5.464;2024-01-11T14:07:45;4.18;;;2.10;;
55186;SDS011;55457;52.002;5.464;2024-01-11T14:10:11;7.30;;;2.22;;
55186;SDS011;55457;52.002;5.464;2024-01-11T14:12:37;4.82;;;2.58;;
55186;SDS011;55457;52.002;5.464;2024-01-11T14:15:03;6.35;;;2.25;;
55186;SDS011;55457;52.002;5.464;2024-01-11T14:17:30;5.70;;;2.03;;
55186;SDS011;55457;52.002;5.464;2024-01-11T14:19:56;5.20;;;2.63;;
55186;SDS011;55457;52.002;5.464;2024-01-11T14:22:21;4.72;;;1.98;;
55186;SDS011;55457;52.002;5.464;2024-01-11T14:24:46;4.35;;;2.53;;
55186;SDS011;55457;52.002;5.464;2024-01-11T14:27:12;3.17;;;1.95;;
55186;SDS011;55457;52.002;5.464;2024-01-11T14:29:39;3.50;;;2.15;;
55186;SDS011;55457;52.002;5.464;2024-01-11T14:32:05;3.80;;;2.20;;
55186;SDS011;55457;52.002;5.464;2024-01-11T14:34:30;3.72;;;1.88;;
55186;SDS011;55457;52.002;5.464;2024-01-11T14:36:58;4.65;;;1.75;;
55186;SDS011;55457;52.002;5.464;2024-01-11T14:39:24;4.97;;;2.67;;
55186;SDS011;55457;52.002;5.464;2024-01-11T14:41:50;3.13;;;1.95;;
55186;SDS011;55457;52.002;5.464;2024-01-11T14:44:17;4.00;;;2.22;;